createdAt,value
2023-01-29T00:00:22.313Z,9.93
2023-01-29T00:02:49.350Z,9.80
2023-01-29T00:05:27.485Z,10.68
2023-01-29T00:07:56.200Z,10.60
2023-01-29T00:10:24.832Z,10.43
2023-01-29T00:12:51.851Z,9.38
2023-01-29T00:15:18.807Z,10.37
2023-01-29T00:17:45.547Z,11.82
2023-01-29T00:20:12.664Z,11.55
2023-01-29T00:22:39.358Z,10.73
2023-01-29T00:25:06.756Z,10.18
2023-01-29T00:27:33.480Z,10.17
2023-01-29T00:30:12.026Z,11.88
2023-01-29T00:32:40.121Z,12.43
2023-01-29T00:35:08.446Z,11.85
2023-01-29T00:37:35.785Z,10.30
2023-01-29T00:40:02.563Z,9.67
2023-01-29T00:42:48.011Z,9.52
2023-01-29T00:45:15.332Z,10.65
2023-01-29T00:47:42.023Z,9.75
2023-01-29T00:50:11.622Z,10.90
2023-01-29T00:52:40.839Z,10.97
2023-01-29T00:55:09.625Z,10.10
2023-01-29T00:57:37.163Z,10.85
2023-01-29T01:00:05.557Z,9.95
2023-01-29T01:02:51.157Z,10.35
2023-01-29T01:05:18.575Z,8.97
2023-01-29T01:07:50.764Z,11.15
2023-01-29T01:10:20.956Z,11.52
2023-01-29T01:12:53.498Z,10.48
2023-01-29T01:15:20.887Z,10.27
2023-01-29T01:17:48.868Z,10.60
2023-01-29T01:20:16.162Z,8.85
2023-01-29T01:22:43.109Z,11.13
2023-01-29T01:25:10.027Z,11.10
2023-01-29T01:27:40.910Z,10.15
2023-01-29T01:30:14.558Z,10.53
2023-01-29T01:32:42.456Z,9.85
2023-01-29T01:35:11.300Z,9.93
2023-01-29T01:37:38.747Z,10.02
2023-01-29T01:40:12.687Z,10.05
2023-01-29T01:42:40.322Z,11.23
2023-01-29T01:45:18.857Z,10.55
2023-01-29T01:47:50.322Z,11.57
2023-01-29T01:50:42.710Z,10.68
2023-01-29T01:53:26.529Z,11.52
2023-01-29T01:56:00.151Z,9.90
2023-01-29T01:58:40.805Z,11.15
2023-01-29T02:01:09.188Z,10.90
2023-01-29T02:04:02.154Z,10.73
2023-01-29T02:06:47.393Z,10.52
2023-01-29T02:09:34.127Z,9.63
2023-01-29T02:12:05.894Z,10.95
2023-01-29T02:14:38.770Z,11.05
2023-01-29T02:17:08.125Z,9.63
2023-01-29T02:19:49.359Z,10.43
2023-01-29T02:22:20.345Z,10.23
2023-01-29T02:25:09.654Z,10.60
2023-01-29T02:27:48.537Z,9.98
2023-01-29T02:30:22.942Z,10.43
2023-01-29T02:33:26.223Z,9.85
2023-01-29T02:36:23.689Z,8.97
2023-01-29T02:39:02.494Z,9.27
2023-01-29T02:41:44.374Z,9.93
2023-01-29T02:44:30.315Z,10.63
2023-01-29T02:47:16.745Z,9.55
2023-01-29T02:49:56.431Z,9.07
2023-01-29T02:52:28.967Z,9.90
2023-01-29T02:55:04.770Z,10.80
2023-01-29T02:57:39.514Z,9.68
2023-01-29T03:00:20.460Z,10.55
2023-01-29T03:02:59.324Z,11.15
2023-01-29T03:05:32.323Z,10.68
2023-01-29T03:08:06.055Z,11.15
2023-01-29T03:10:55.817Z,10.98
2023-01-29T03:13:37.759Z,11.00
2023-01-29T03:16:25.831Z,11.32
2023-01-29T03:19:31.844Z,11.00
2023-01-29T03:22:04.104Z,10.82
2023-01-29T03:25:06.363Z,11.77
2023-01-29T03:27:57.917Z,11.43
2023-01-29T03:30:46.889Z,11.35
2023-01-29T03:33:54.003Z,11.05
2023-01-29T03:36:38.591Z,11.27
2023-01-29T03:39:07.512Z,12.68
2023-01-29T03:41:50.382Z,11.63
2023-01-29T03:44:53.534Z,10.60
2023-01-29T03:47:42.153Z,12.07
2023-01-29T03:50:45.407Z,12.90
2023-01-29T03:53:44.156Z,12.88
2023-01-29T03:56:38.767Z,11.90
2023-01-29T03:59:19.108Z,13.02
2023-01-29T04:02:07.421Z,11.95
2023-01-29T04:04:36.911Z,11.90
2023-01-29T04:07:12.878Z,11.23
2023-01-29T04:09:45.543Z,12.30
2023-01-29T04:12:15.854Z,13.10
2023-01-29T04:14:45.908Z,12.68
2023-01-29T04:17:22.770Z,14.07
2023-01-29T04:20:03.300Z,12.85
2023-01-29T04:22:37.466Z,11.73
2023-01-29T04:25:18.242Z,13.32
2023-01-29T04:28:05.192Z,11.52
2023-01-29T04:30:34.876Z,12.48
2023-01-29T04:33:26.120Z,11.95
2023-01-29T04:36:10.915Z,13.53
2023-01-29T04:38:50.983Z,13.43
2023-01-29T04:41:36.162Z,12.60
2023-01-29T04:44:32.119Z,12.73
2023-01-29T04:47:22.409Z,12.57
2023-01-29T04:50:23.482Z,14.90
2023-01-29T04:53:04.568Z,12.40
2023-01-29T04:55:53.299Z,12.45
2023-01-29T04:58:23.063Z,12.80
2023-01-29T05:00:54.290Z,12.90
2023-01-29T05:03:25.769Z,13.30
2023-01-29T05:05:55.723Z,12.70
2023-01-29T05:08:25.146Z,13.05
2023-01-29T05:10:53.949Z,12.90
2023-01-29T05:13:23.287Z,14.20
2023-01-29T05:16:01.755Z,14.17
2023-01-29T05:18:30.445Z,13.27
2023-01-29T05:20:58.923Z,14.35
2023-01-29T05:23:25.786Z,16.25
2023-01-29T05:25:52.767Z,12.52
2023-01-29T05:28:19.549Z,13.67
2023-01-29T05:30:49.486Z,12.35
2023-01-29T05:33:30.814Z,12.75
2023-01-29T05:35:59.890Z,12.65
2023-01-29T05:38:26.847Z,13.63
2023-01-29T05:40:54.384Z,12.47
2023-01-29T05:43:23.693Z,12.57
2023-01-29T05:45:58.872Z,13.25
2023-01-29T05:48:28.702Z,12.20
2023-01-29T05:51:00.547Z,12.98
2023-01-29T05:53:29.225Z,13.07
2023-01-29T05:55:57.198Z,13.75
2023-01-29T05:58:24.621Z,13.50
2023-01-29T06:00:51.377Z,13.18
2023-01-29T06:03:18.237Z,13.60
2023-01-29T06:05:45.162Z,13.00
2023-01-29T06:08:12.125Z,13.90
2023-01-29T06:10:38.889Z,12.82
2023-01-29T06:13:05.668Z,12.18
2023-01-29T06:15:32.341Z,13.90
2023-01-29T06:17:59.137Z,12.33
2023-01-29T06:20:25.911Z,13.35
2023-01-29T06:22:52.659Z,13.15
2023-01-29T06:25:19.406Z,12.60
2023-01-29T06:27:46.118Z,13.15
2023-01-29T06:30:13.399Z,12.60
2023-01-29T06:32:40.208Z,13.55
2023-01-29T06:35:07.652Z,14.00
2023-01-29T06:37:34.387Z,14.10
2023-01-29T06:40:01.254Z,13.00
2023-01-29T06:42:28.206Z,12.13
2023-01-29T06:44:56.134Z,12.18
2023-01-29T06:47:23.703Z,12.55
2023-01-29T06:49:50.702Z,12.27
2023-01-29T06:52:17.464Z,12.10
2023-01-29T06:54:44.150Z,11.33
2023-01-29T06:57:10.931Z,11.77
2023-01-29T06:59:37.637Z,13.00
2023-01-29T07:02:04.684Z,12.82
2023-01-29T07:04:31.519Z,12.30
2023-01-29T07:07:00.044Z,12.70
2023-01-29T07:09:26.840Z,12.93
2023-01-29T07:11:53.605Z,11.80
2023-01-29T07:14:20.349Z,11.27
2023-01-29T07:16:47.118Z,12.68
2023-01-29T07:19:14.215Z,11.57
2023-01-29T07:21:40.902Z,11.73
2023-01-29T07:24:07.977Z,11.93
2023-01-29T07:26:34.698Z,11.60
2023-01-29T07:29:01.430Z,11.75
2023-01-29T07:31:28.340Z,12.67
2023-01-29T07:33:55.894Z,12.10
2023-01-29T07:36:24.053Z,11.90
2023-01-29T07:38:51.657Z,11.73
2023-01-29T07:41:18.846Z,12.57
2023-01-29T07:43:46.592Z,11.90
2023-01-29T07:46:13.608Z,12.07
2023-01-29T07:48:40.332Z,12.35
2023-01-29T07:51:07.075Z,11.82
2023-01-29T07:53:33.961Z,12.55
2023-01-29T07:56:00.760Z,11.47
2023-01-29T07:58:27.510Z,11.52
2023-01-29T08:00:54.237Z,12.40
2023-01-29T08:03:21.158Z,11.90
2023-01-29T08:05:48.130Z,12.02
2023-01-29T08:08:15.036Z,11.47
2023-01-29T08:10:42.431Z,11.50
2023-01-29T08:13:09.535Z,11.45
2023-01-29T08:15:38.744Z,11.27
2023-01-29T08:18:06.590Z,12.37
2023-01-29T08:20:33.499Z,11.32
2023-01-29T08:23:02.108Z,11.60
2023-01-29T08:25:29.547Z,12.05
2023-01-29T08:27:57.858Z,12.68
2023-01-29T08:30:26.905Z,11.90
2023-01-29T08:32:53.727Z,10.98
2023-01-29T08:35:21.278Z,11.98
2023-01-29T08:37:54.711Z,11.60
2023-01-29T08:40:21.714Z,11.45
2023-01-29T08:42:48.566Z,10.87
2023-01-29T08:45:15.628Z,10.82
2023-01-29T08:47:49.693Z,10.40
2023-01-29T08:50:20.017Z,11.00
2023-01-29T08:52:47.127Z,10.95
2023-01-29T08:55:14.055Z,11.30
2023-01-29T08:57:40.966Z,11.50
2023-01-29T09:00:09.305Z,11.25
2023-01-29T09:02:36.811Z,11.13
2023-01-29T09:05:03.731Z,11.00
2023-01-29T09:07:30.430Z,12.33
2023-01-29T09:09:58.238Z,12.35
2023-01-29T09:12:25.370Z,11.52
2023-01-29T09:14:52.253Z,11.63
2023-01-29T09:17:19.101Z,10.48
2023-01-29T09:19:45.890Z,10.83
2023-01-29T09:22:12.887Z,11.15
2023-01-29T09:24:39.733Z,10.95
2023-01-29T09:27:06.713Z,11.38
2023-01-29T09:29:35.755Z,11.02
2023-01-29T09:32:04.411Z,11.13
2023-01-29T09:34:31.169Z,10.45
2023-01-29T09:36:57.904Z,10.80
2023-01-29T09:39:24.675Z,11.18
2023-01-29T09:41:58.339Z,10.30
2023-01-29T09:44:39.166Z,11.07
2023-01-29T09:47:11.123Z,11.20
2023-01-29T09:49:43.517Z,12.30
2023-01-29T09:52:24.975Z,10.90
2023-01-29T09:55:06.149Z,11.73
2023-01-29T09:57:38.589Z,11.43
2023-01-29T10:00:06.042Z,11.38
2023-01-29T10:02:38.793Z,10.80
2023-01-29T10:05:08.312Z,11.50
2023-01-29T10:08:00.652Z,11.35
2023-01-29T10:10:46.217Z,11.10
2023-01-29T10:13:33.921Z,10.98
2023-01-29T10:16:25.950Z,12.15
2023-01-29T10:19:20.689Z,12.13
2023-01-29T10:21:56.204Z,11.52
2023-01-29T10:25:01.303Z,11.47
2023-01-29T10:27:44.755Z,11.73
2023-01-29T10:30:40.254Z,11.10
2023-01-29T10:33:17.103Z,12.15
2023-01-29T10:35:50.009Z,12.10
2023-01-29T10:38:41.998Z,12.20
2023-01-29T10:41:17.950Z,12.45
2023-01-29T10:43:44.694Z,12.15
2023-01-29T10:46:34.800Z,12.13
2023-01-29T10:49:37.684Z,10.93
2023-01-29T10:52:28.648Z,12.30
2023-01-29T10:55:19.539Z,12.48
2023-01-29T10:57:58.161Z,11.50
2023-01-29T11:00:27.989Z,12.10
2023-01-29T11:02:54.792Z,12.52
2023-01-29T11:05:34.825Z,12.07
2023-01-29T11:08:16.048Z,12.30
2023-01-29T11:11:29.466Z,12.65
2023-01-29T11:14:07.190Z,12.90
2023-01-29T11:16:42.772Z,12.55
2023-01-29T11:19:10.531Z,13.17
2023-01-29T11:22:01.298Z,11.50
2023-01-29T11:24:28.490Z,12.63
2023-01-29T11:26:57.695Z,13.05
2023-01-29T11:29:27.649Z,13.00
2023-01-29T11:31:54.915Z,14.27
2023-01-29T11:34:27.571Z,13.48
2023-01-29T11:36:59.862Z,13.43
2023-01-29T11:39:28.721Z,14.23
2023-01-29T11:42:01.246Z,13.73
2023-01-29T11:44:41.471Z,14.37
2023-01-29T11:47:24.104Z,15.02
2023-01-29T11:49:54.623Z,13.93
2023-01-29T11:52:24.800Z,13.90
2023-01-29T11:55:07.281Z,15.02
2023-01-29T11:57:42.149Z,15.47
2023-01-29T12:00:18.394Z,14.52
2023-01-29T12:02:55.439Z,14.70
2023-01-29T12:05:27.110Z,14.25
2023-01-29T12:07:59.917Z,14.82
2023-01-29T12:10:38.692Z,14.00
2023-01-29T12:13:19.788Z,14.50
2023-01-29T12:15:48.619Z,14.10
2023-01-29T12:18:27.422Z,14.75
2023-01-29T12:21:05.364Z,14.93
2023-01-29T12:24:03.467Z,14.93
2023-01-29T12:26:48.071Z,15.25
2023-01-29T12:29:14.719Z,13.45
2023-01-29T12:31:54.730Z,14.27
2023-01-29T12:34:46.360Z,14.77
2023-01-29T12:37:22.513Z,14.57
2023-01-29T12:39:52.241Z,14.55
2023-01-29T12:42:22.605Z,15.32
2023-01-29T12:44:52.145Z,16.05
2023-01-29T12:47:42.984Z,16.00
2023-01-29T12:50:21.524Z,15.23
2023-01-29T12:52:58.348Z,14.85
2023-01-29T12:55:47.649Z,14.38
2023-01-29T12:58:25.035Z,15.90
2023-01-29T13:00:57.236Z,15.60
2023-01-29T13:03:34.660Z,15.83
2023-01-29T13:06:09.943Z,15.18
2023-01-29T13:08:41.779Z,15.35
2023-01-29T13:11:14.472Z,15.45
2023-01-29T13:13:54.042Z,14.93
2023-01-29T13:16:26.176Z,14.50
2023-01-29T13:19:27.594Z,15.32
2023-01-29T13:21:57.490Z,16.42
2023-01-29T13:24:27.282Z,15.00
2023-01-29T13:26:54.106Z,14.52
2023-01-29T13:29:29.770Z,15.63
2023-01-29T13:32:03.216Z,14.88
2023-01-29T13:34:44.298Z,16.50
2023-01-29T13:37:28.123Z,15.35
2023-01-29T13:39:57.017Z,14.98
2023-01-29T13:42:31.627Z,16.03
2023-01-29T13:45:02.828Z,14.95
2023-01-29T13:47:32.921Z,15.50
2023-01-29T13:50:18.055Z,15.65
2023-01-29T13:52:54.467Z,15.30
2023-01-29T13:55:32.229Z,14.50
2023-01-29T13:58:04.536Z,15.70
2023-01-29T14:00:34.315Z,13.98
2023-01-29T14:03:01.072Z,15.25
2023-01-29T14:05:30.754Z,14.32
2023-01-29T14:07:59.308Z,15.27
2023-01-29T14:10:30.697Z,15.52
2023-01-29T14:13:17.921Z,15.55
2023-01-29T14:15:56.863Z,13.88
2023-01-29T14:18:28.128Z,15.65
2023-01-29T14:20:58.688Z,14.27
2023-01-29T14:23:51.074Z,15.10
2023-01-29T14:26:43.596Z,12.55
2023-01-29T14:29:18.832Z,13.85
2023-01-29T14:31:59.201Z,13.85
2023-01-29T14:34:47.628Z,14.83
2023-01-29T14:37:17.186Z,13.25
2023-01-29T14:39:57.565Z,14.85
2023-01-29T14:42:29.479Z,13.70
2023-01-29T14:45:13.285Z,13.52
2023-01-29T14:47:39.985Z,13.50
2023-01-29T14:50:28.508Z,13.98
2023-01-29T14:53:00.170Z,14.65
2023-01-29T14:55:37.141Z,14.25
2023-01-29T14:58:04.420Z,14.00
2023-01-29T15:00:36.742Z,14.17
2023-01-29T15:03:12.203Z,13.48
2023-01-29T15:05:39.852Z,12.77
2023-01-29T15:08:15.782Z,14.65
2023-01-29T15:11:13.890Z,13.50
2023-01-29T15:14:13.211Z,12.53
2023-01-29T15:17:00.598Z,13.30
2023-01-29T15:19:52.958Z,13.32
2023-01-29T15:22:22.242Z,12.85
2023-01-29T15:25:07.182Z,15.05
2023-01-29T15:27:34.449Z,11.93
2023-01-29T15:30:04.637Z,13.55
2023-01-29T15:32:37.325Z,13.80
2023-01-29T15:35:37.408Z,13.57
2023-01-29T15:38:14.133Z,12.98
2023-01-29T15:40:41.068Z,13.70
2023-01-29T15:43:43.522Z,12.52
2023-01-29T15:46:20.225Z,13.02
2023-01-29T15:48:49.070Z,13.38
2023-01-29T15:51:19.723Z,12.88
2023-01-29T15:53:54.843Z,14.13
2023-01-29T15:56:29.284Z,13.98
2023-01-29T15:58:58.952Z,12.70
2023-01-29T16:01:29.984Z,13.85
2023-01-29T16:04:02.385Z,14.13
2023-01-29T16:06:36.553Z,14.00
2023-01-29T16:09:05.101Z,12.68
2023-01-29T16:11:33.921Z,14.07
2023-01-29T16:14:02.519Z,13.90
2023-01-29T16:16:29.394Z,13.40
2023-01-29T16:19:01.048Z,13.77
2023-01-29T16:21:39.732Z,13.25
2023-01-29T16:24:12.067Z,13.10
2023-01-29T16:26:44.787Z,13.00
2023-01-29T16:29:16.198Z,13.23
2023-01-29T16:31:45.764Z,13.47
2023-01-29T16:34:32.980Z,11.27
2023-01-29T16:37:02.401Z,13.45
2023-01-29T16:39:32.573Z,12.05
2023-01-29T16:42:19.682Z,12.50
2023-01-29T16:44:50.863Z,13.03
2023-01-29T16:47:39.055Z,11.85
2023-01-29T16:50:17.929Z,13.68
2023-01-29T16:53:06.761Z,12.05
2023-01-29T16:55:39.376Z,13.38
2023-01-29T16:58:17.395Z,12.10
2023-01-29T17:00:47.327Z,13.07
2023-01-29T17:03:17.105Z,13.23
2023-01-29T17:05:44.906Z,12.93
2023-01-29T17:08:34.589Z,13.10
2023-01-29T17:11:02.345Z,13.37
2023-01-29T17:13:40.206Z,12.75
2023-01-29T17:16:25.561Z,13.45
2023-01-29T17:18:52.506Z,12.95
2023-01-29T17:21:19.258Z,14.77
2023-01-29T17:23:46.155Z,12.13
2023-01-29T17:26:14.572Z,12.43
2023-01-29T17:28:42.460Z,15.35
2023-01-29T17:31:09.768Z,14.57
2023-01-29T17:33:41.074Z,14.35
2023-01-29T17:36:16.399Z,13.43
2023-01-29T17:38:43.933Z,15.43
2023-01-29T17:41:26.303Z,13.93
2023-01-29T17:43:53.084Z,15.43
2023-01-29T17:46:20.511Z,14.68
2023-01-29T17:48:49.345Z,14.27
2023-01-29T17:51:18.029Z,14.15
2023-01-29T17:53:46.853Z,15.20
2023-01-29T17:56:34.641Z,14.40
2023-01-29T17:59:01.915Z,12.07
2023-01-29T18:01:28.789Z,15.97
2023-01-29T18:03:55.559Z,14.93
2023-01-29T18:06:28.324Z,13.38
2023-01-29T18:08:56.372Z,15.68
2023-01-29T18:11:23.502Z,15.15
2023-01-29T18:13:50.413Z,15.83
2023-01-29T18:16:18.741Z,13.57
2023-01-29T18:18:45.657Z,14.25
2023-01-29T18:21:12.576Z,14.57
2023-01-29T18:23:39.712Z,14.93
2023-01-29T18:26:07.589Z,14.43
2023-01-29T18:28:34.515Z,15.50
2023-01-29T18:31:02.553Z,14.95
2023-01-29T18:33:29.414Z,13.77
2023-01-29T18:35:56.296Z,14.27
2023-01-29T18:38:23.652Z,14.47
2023-01-29T18:40:50.517Z,15.30
2023-01-29T18:43:17.219Z,13.63
2023-01-29T18:45:44.029Z,14.63
2023-01-29T18:48:10.771Z,13.25
2023-01-29T18:50:37.503Z,13.93
2023-01-29T18:53:04.442Z,14.50
2023-01-29T18:55:31.342Z,14.40
2023-01-29T18:58:28.997Z,15.32
2023-01-29T19:00:47.536Z,13.80
2023-01-29T19:03:14.345Z,14.60
2023-01-29T19:05:41.079Z,15.90
2023-01-29T19:08:08.014Z,14.63
2023-01-29T19:10:34.857Z,14.45
2023-01-29T19:13:01.664Z,14.15
2023-01-29T19:15:28.463Z,14.77
2023-01-29T19:17:55.925Z,13.43
2023-01-29T19:20:22.817Z,15.23
2023-01-29T19:22:49.709Z,14.63
2023-01-29T19:25:17.705Z,14.00
2023-01-29T19:27:45.917Z,13.27
2023-01-29T19:30:12.980Z,14.30
2023-01-29T19:32:40.935Z,13.57
2023-01-29T19:35:07.865Z,14.90
2023-01-29T19:37:34.661Z,13.98
2023-01-29T19:40:01.397Z,13.23
2023-01-29T19:42:28.208Z,13.30
2023-01-29T19:44:54.988Z,14.77
2023-01-29T19:47:21.826Z,13.48
2023-01-29T19:49:48.548Z,13.68
2023-01-29T19:52:49.878Z,13.57
2023-01-29T19:55:19.204Z,12.75
2023-01-29T19:57:46.954Z,14.95
2023-01-29T20:00:15.432Z,13.00
2023-01-29T20:02:42.292Z,14.57
2023-01-29T20:05:11.953Z,14.53
2023-01-29T20:07:42.324Z,15.05
2023-01-29T20:10:11.507Z,14.43
2023-01-29T20:12:38.475Z,13.35
2023-01-29T20:15:07.165Z,14.07
2023-01-29T20:17:33.911Z,14.57
2023-01-29T20:20:00.647Z,14.70
2023-01-29T20:22:29.326Z,16.08
2023-01-29T20:24:56.180Z,15.77
2023-01-29T20:27:23.026Z,14.60
2023-01-29T20:29:52.381Z,14.77
2023-01-29T20:32:19.156Z,14.82
2023-01-29T20:34:49.622Z,14.57
2023-01-29T20:37:16.433Z,15.70
2023-01-29T20:39:43.239Z,15.98
2023-01-29T20:42:10.030Z,14.97
2023-01-29T20:44:36.850Z,15.88
2023-01-29T20:47:04.011Z,14.70
2023-01-29T20:49:31.301Z,13.80
2023-01-29T20:51:58.108Z,16.05
2023-01-29T20:54:24.942Z,13.83
2023-01-29T20:56:51.837Z,15.90
2023-01-29T20:59:18.686Z,14.40
2023-01-29T21:01:45.911Z,16.33
2023-01-29T21:04:12.696Z,15.40
2023-01-29T21:06:39.467Z,15.90
2023-01-29T21:09:06.311Z,15.20
2023-01-29T21:11:33.670Z,16.05
2023-01-29T21:14:01.903Z,14.98
2023-01-29T21:16:29.122Z,14.95
2023-01-29T21:18:59.408Z,15.20
2023-01-29T21:21:26.691Z,15.10
2023-01-29T21:23:54.006Z,14.43
2023-01-29T21:26:20.965Z,16.30
2023-01-29T21:28:47.829Z,14.82
2023-01-29T21:31:16.284Z,15.10
2023-01-29T21:33:43.931Z,15.00
2023-01-29T21:36:11.260Z,15.88
2023-01-29T21:38:38.194Z,15.80
2023-01-29T21:41:08.711Z,15.90
2023-01-29T21:43:35.908Z,14.67
2023-01-29T21:46:05.134Z,15.13
2023-01-29T21:48:32.123Z,15.15
2023-01-29T21:50:58.997Z,15.88
2023-01-29T21:53:25.801Z,15.02
2023-01-29T21:55:52.506Z,15.10
2023-01-29T21:58:20.525Z,14.60
2023-01-29T22:00:48.790Z,15.13
2023-01-29T22:03:15.711Z,15.90
2023-01-29T22:05:42.603Z,15.35
2023-01-29T22:08:09.881Z,15.13
2023-01-29T22:10:37.577Z,14.70
2023-01-29T22:13:04.535Z,16.20
2023-01-29T22:15:31.380Z,16.25
2023-01-29T22:17:58.312Z,14.50
2023-01-29T22:20:30.045Z,14.50
2023-01-29T22:23:00.522Z,14.25
2023-01-29T22:25:27.743Z,14.95
2023-01-29T22:27:54.709Z,14.13
2023-01-29T22:30:23.312Z,16.10
2023-01-29T22:32:50.638Z,17.30
2023-01-29T22:35:17.694Z,13.88
2023-01-29T22:37:45.128Z,14.90
2023-01-29T22:40:13.011Z,15.93
2023-01-29T22:42:39.971Z,14.18
2023-01-29T22:45:07.912Z,16.30
2023-01-29T22:47:34.641Z,15.38
2023-01-29T22:50:01.423Z,15.40
2023-01-29T22:52:28.393Z,16.55
2023-01-29T22:54:55.215Z,14.55
2023-01-29T22:57:22.149Z,15.60
2023-01-29T22:59:48.949Z,14.20
2023-01-29T23:02:15.718Z,16.17
2023-01-29T23:04:42.516Z,15.70
2023-01-29T23:07:09.382Z,15.30
2023-01-29T23:09:36.117Z,15.20
2023-01-29T23:12:04.181Z,13.75
2023-01-29T23:14:30.991Z,16.60
2023-01-29T23:16:57.743Z,13.93
2023-01-29T23:19:24.576Z,14.82
2023-01-29T23:21:51.309Z,16.37
2023-01-29T23:24:18.115Z,14.55
2023-01-29T23:27:03.414Z,14.60
2023-01-29T23:29:30.151Z,15.48
2023-01-29T23:31:56.841Z,14.82
2023-01-29T23:34:23.931Z,14.03
2023-01-29T23:36:50.838Z,13.77
2023-01-29T23:39:18.127Z,13.88
2023-01-29T23:41:44.881Z,13.63
2023-01-29T23:44:11.638Z,13.43
2023-01-29T23:46:38.483Z,13.73
2023-01-29T23:49:05.542Z,13.63
2023-01-29T23:51:32.580Z,13.75
2023-01-29T23:53:59.382Z,14.18
2023-01-29T23:56:26.362Z,13.68
2023-01-29T23:58:57.034Z,14.00
